sensor_id;sensor_type;location;lat;lon;timestamp;temperature;humidity
38359;DHT22;42072;48.044;14.416;2023-07-13T00:01:56;18.00;1.00
38359;DHT22;42072;48.044;14.416;2023-07-13T00:04:25;18.00;1.00
38359;DHT22;42072;48.044;14.416;2023-07-13T00:06:53;18.00;1.00
38359;DHT22;42072;48.044;14.416;2023-07-13T00:09:21;18.00;1.00
38359;DHT22;42072;48.044;14.416;2023-07-13T00:11:55;18.10;1.00
38359;DHT22;42072;48.044;14.416;2023-07-13T00:14:24;18.10;1.00
38359;DHT22;42072;48.044;14.416;2023-07-13T00:16:51;18.10;1.00
38359;DHT22;42072;48.044;14.416;2023-07-13T00:19:19;18.10;1.00
38359;DHT22;42072;48.044;14.416;2023-07-13T00:21:46;18.10;1.00
38359;DHT22;42072;48.044;14.416;2023-07-13T00:24:17;18.10;1.00
38359;DHT22;42072;48.044;14.416;2023-07-13T00:26:50;18.10;1.00
38359;DHT22;42072;48.044;14.416;2023-07-13T00:29:18;18.10;1.00
38359;DHT22;42072;48.044;14.416;2023-07-13T00:31:45;18.10;1.00
38359;DHT22;42072;48.044;14.416;2023-07-13T00:34:13;18.20;1.00
38359;DHT22;42072;48.044;14.416;2023-07-13T00:36:40;18.20;1.00
38359;DHT22;42072;48.044;14.416;2023-07-13T00:39:07;18.20;1.00
38359;DHT22;42072;48.044;14.416;2023-07-13T00:41:35;18.20;1.00
38359;DHT22;42072;48.044;14.416;2023-07-13T00:44:04;18.10;1.00
38359;DHT22;42072;48.044;14.416;2023-07-13T00:46:33;18.10;1.00
38359;DHT22;42072;48.044;14.416;2023-07-13T00:49:04;18.10;1.00
38359;DHT22;42072;48.044;14.416;2023-07-13T00:51:48;18.00;1.00
38359;DHT22;42072;48.044;14.416;2023-07-13T00:54:23;18.00;1.00
38359;DHT22;42072;48.044;14.416;2023-07-13T00:56:54;18.00;1.00
38359;DHT22;42072;48.044;14.416;2023-07-13T00:59:23;18.10;1.00
38359;DHT22;42072;48.044;14.416;2023-07-13T01:01:51;18.10;1.00
38359;DHT22;42072;48.044;14.416;2023-07-13T01:04:18;18.10;1.00
38359;DHT22;42072;48.044;14.416;2023-07-13T01:06:46;18.20;1.00
38359;DHT22;42072;48.044;14.416;2023-07-13T01:09:14;18.20;1.00
38359;DHT22;42072;48.044;14.416;2023-07-13T01:11:43;18.20;1.00
38359;DHT22;42072;48.044;14.416;2023-07-13T01:14:12;18.20;1.00
38359;DHT22;42072;48.044;14.416;2023-07-13T01:16:42;18.20;1.00
38359;DHT22;42072;48.044;14.416;2023-07-13T01:19:25;18.20;1.00
38359;DHT22;42072;48.044;14.416;2023-07-13T01:22:07;18.20;1.00
38359;DHT22;42072;48.044;14.416;2023-07-13T01:24:41;18.30;1.00
38359;DHT22;42072;48.044;14.416;2023-07-13T01:27:12;18.20;1.00
38359;DHT22;42072;48.044;14.416;2023-07-13T01:29:41;18.30;1.00
38359;DHT22;42072;48.044;14.416;2023-07-13T01:32:13;18.30;1.00
38359;DHT22;42072;48.044;14.416;2023-07-13T01:34:40;18.30;1.00
38359;DHT22;42072;48.044;14.416;2023-07-13T01:37:12;18.30;1.00
38359;DHT22;42072;48.044;14.416;2023-07-13T01:39:39;18.30;1.00
38359;DHT22;42072;48.044;14.416;2023-07-13T01:42:07;18.30;1.00
38359;DHT22;42072;48.044;14.416;2023-07-13T01:44:34;18.20;1.00
38359;DHT22;42072;48.044;14.416;2023-07-13T01:47:01;18.30;1.00
38359;DHT22;42072;48.044;14.416;2023-07-13T01:49:29;18.30;1.00
38359;DHT22;42072;48.044;14.416;2023-07-13T01:51:56;18.30;1.00
38359;DHT22;42072;48.044;14.416;2023-07-13T01:54:24;18.30;1.00
38359;DHT22;42072;48.044;14.416;2023-07-13T01:56:51;18.30;1.00
38359;DHT22;42072;48.044;14.416;2023-07-13T01:59:18;18.30;1.00
38359;DHT22;42072;48.044;14.416;2023-07-13T02:01:45;18.40;1.00
38359;DHT22;42072;48.044;14.416;2023-07-13T02:04:13;18.40;1.00
38359;DHT22;42072;48.044;14.416;2023-07-13T02:06:41;18.30;1.00
38359;DHT22;42072;48.044;14.416;2023-07-13T02:09:08;18.30;1.00
38359;DHT22;42072;48.044;14.416;2023-07-13T02:11:35;18.20;1.00
38359;DHT22;42072;48.044;14.416;2023-07-13T02:14:03;18.20;1.00
38359;DHT22;42072;48.044;14.416;2023-07-13T02:16:30;18.10;1.00
38359;DHT22;42072;48.044;14.416;2023-07-13T02:18:58;18.20;1.00
38359;DHT22;42072;48.044;14.416;2023-07-13T02:21:27;18.20;1.00
38359;DHT22;42072;48.044;14.416;2023-07-13T02:23:54;18.20;1.00
38359;DHT22;42072;48.044;14.416;2023-07-13T02:26:22;18.20;1.00
38359;DHT22;42072;48.044;14.416;2023-07-13T02:28:49;18.10;1.00
38359;DHT22;42072;48.044;14.416;2023-07-13T02:31:16;18.10;1.00
38359;DHT22;42072;48.044;14.416;2023-07-13T02:33:44;18.10;1.00
38359;DHT22;42072;48.044;14.416;2023-07-13T02:36:12;18.00;1.00
38359;DHT22;42072;48.044;14.416;2023-07-13T02:38:40;18.00;1.00
38359;DHT22;42072;48.044;14.416;2023-07-13T02:41:08;18.10;1.00
38359;DHT22;42072;48.044;14.416;2023-07-13T02:43:37;18.10;1.00
38359;DHT22;42072;48.044;14.416;2023-07-13T02:46:04;18.10;1.00
38359;DHT22;42072;48.044;14.416;2023-07-13T02:48:36;18.00;1.00
38359;DHT22;42072;48.044;14.416;2023-07-13T02:51:04;18.00;1.00
38359;DHT22;42072;48.044;14.416;2023-07-13T02:53:32;18.10;1.00
38359;DHT22;42072;48.044;14.416;2023-07-13T02:55:59;18.10;1.00
38359;DHT22;42072;48.044;14.416;2023-07-13T02:58:26;18.10;1.00
38359;DHT22;42072;48.044;14.416;2023-07-13T03:00:55;18.00;1.00
38359;DHT22;42072;48.044;14.416;2023-07-13T03:03:22;18.00;1.00
38359;DHT22;42072;48.044;14.416;2023-07-13T03:05:58;18.00;1.00
38359;DHT22;42072;48.044;14.416;2023-07-13T03:08:27;18.00;1.00
38359;DHT22;42072;48.044;14.416;2023-07-13T03:11:05;18.00;1.00
38359;DHT22;42072;48.044;14.416;2023-07-13T03:13:34;17.90;1.00
38359;DHT22;42072;48.044;14.416;2023-07-13T03:16:01;17.90;1.00
38359;DHT22;42072;48.044;14.416;2023-07-13T03:18:30;17.80;1.00
38359;DHT22;42072;48.044;14.416;2023-07-13T03:20:57;17.80;1.00
38359;DHT22;42072;48.044;14.416;2023-07-13T03:23:24;17.80;1.00
38359;DHT22;42072;48.044;14.416;2023-07-13T03:26:05;17.80;1.00
38359;DHT22;42072;48.044;14.416;2023-07-13T03:28:33;17.80;1.00
38359;DHT22;42072;48.044;14.416;2023-07-13T03:31:07;17.80;1.00
38359;DHT22;42072;48.044;14.416;2023-07-13T03:33:34;17.90;1.00
38359;DHT22;42072;48.044;14.416;2023-07-13T03:36:03;17.80;1.00
38359;DHT22;42072;48.044;14.416;2023-07-13T03:38:31;17.90;1.00
38359;DHT22;42072;48.044;14.416;2023-07-13T03:40:59;17.90;1.00
38359;DHT22;42072;48.044;14.416;2023-07-13T03:43:26;17.90;1.00
38359;DHT22;42072;48.044;14.416;2023-07-13T03:45:53;17.90;1.00
38359;DHT22;42072;48.044;14.416;2023-07-13T03:48:21;17.90;1.00
38359;DHT22;42072;48.044;14.416;2023-07-13T03:50:48;17.90;1.00
38359;DHT22;42072;48.044;14.416;2023-07-13T03:53:18;17.90;1.00
38359;DHT22;42072;48.044;14.416;2023-07-13T03:55:46;17.90;1.00
38359;DHT22;42072;48.044;14.416;2023-07-13T03:58:32;17.90;1.00
38359;DHT22;42072;48.044;14.416;2023-07-13T04:01:01;17.90;1.00
38359;DHT22;42072;48.044;14.416;2023-07-13T04:03:30;17.90;1.00
38359;DHT22;42072;48.044;14.416;2023-07-13T04:06:01;17.90;1.00
38359;DHT22;42072;48.044;14.416;2023-07-13T04:08:30;18.00;1.00
38359;DHT22;42072;48.044;14.416;2023-07-13T04:10:57;18.10;1.00
38359;DHT22;42072;48.044;14.416;2023-07-13T04:13:25;18.10;1.00
38359;DHT22;42072;48.044;14.416;2023-07-13T04:15:53;18.20;1.00
38359;DHT22;42072;48.044;14.416;2023-07-13T04:18:22;18.10;1.00
38359;DHT22;42072;48.044;14.416;2023-07-13T04:20:50;18.10;1.00
38359;DHT22;42072;48.044;14.416;2023-07-13T04:23:18;18.10;1.00
38359;DHT22;42072;48.044;14.416;2023-07-13T04:25:51;18.10;1.00
38359;DHT22;42072;48.044;14.416;2023-07-13T04:28:21;18.20;1.00
38359;DHT22;42072;48.044;14.416;2023-07-13T04:30:49;18.20;1.00
38359;DHT22;42072;48.044;14.416;2023-07-13T04:33:17;18.20;1.00
38359;DHT22;42072;48.044;14.416;2023-07-13T04:35:45;18.30;1.00
38359;DHT22;42072;48.044;14.416;2023-07-13T04:38:14;18.30;1.00
38359;DHT22;42072;48.044;14.416;2023-07-13T04:40:45;18.30;1.00
38359;DHT22;42072;48.044;14.416;2023-07-13T04:43:12;18.40;1.00
38359;DHT22;42072;48.044;14.416;2023-07-13T04:45:40;18.40;1.00
38359;DHT22;42072;48.044;14.416;2023-07-13T04:48:08;18.40;1.00
38359;DHT22;42072;48.044;14.416;2023-07-13T04:50:38;18.50;1.00
38359;DHT22;42072;48.044;14.416;2023-07-13T04:53:05;18.50;1.00
38359;DHT22;42072;48.044;14.416;2023-07-13T04:55:33;18.50;1.00
38359;DHT22;42072;48.044;14.416;2023-07-13T04:58:00;18.60;1.00
38359;DHT22;42072;48.044;14.416;2023-07-13T05:00:27;18.60;1.00
38359;DHT22;42072;48.044;14.416;2023-07-13T05:02:56;18.70;1.00
38359;DHT22;42072;48.044;14.416;2023-07-13T05:05:26;18.70;1.00
38359;DHT22;42072;48.044;14.416;2023-07-13T05:07:54;18.70;1.00
38359;DHT22;42072;48.044;14.416;2023-07-13T05:10:22;18.80;1.00
38359;DHT22;42072;48.044;14.416;2023-07-13T05:12:50;18.90;1.00
38359;DHT22;42072;48.044;14.416;2023-07-13T05:15:17;18.80;1.00
38359;DHT22;42072;48.044;14.416;2023-07-13T05:17:49;18.90;1.00
38359;DHT22;42072;48.044;14.416;2023-07-13T05:20:17;18.90;1.00
38359;DHT22;42072;48.044;14.416;2023-07-13T05:22:45;19.00;1.00
38359;DHT22;42072;48.044;14.416;2023-07-13T05:25:15;19.00;99.90
38359;DHT22;42072;48.044;14.416;2023-07-13T05:27:43;19.00;99.90
38359;DHT22;42072;48.044;14.416;2023-07-13T05:30:13;19.00;99.90
38359;DHT22;42072;48.044;14.416;2023-07-13T05:32:41;19.00;99.90
38359;DHT22;42072;48.044;14.416;2023-07-13T05:35:09;19.00;99.90
38359;DHT22;42072;48.044;14.416;2023-07-13T05:37:37;19.00;99.90
38359;DHT22;42072;48.044;14.416;2023-07-13T05:40:05;19.10;99.90
38359;DHT22;42072;48.044;14.416;2023-07-13T05:42:33;19.20;99.90
38359;DHT22;42072;48.044;14.416;2023-07-13T05:45:01;19.20;99.90
38359;DHT22;42072;48.044;14.416;2023-07-13T05:47:28;19.30;99.90
38359;DHT22;42072;48.044;14.416;2023-07-13T05:49:55;19.30;99.90
38359;DHT22;42072;48.044;14.416;2023-07-13T05:52:23;19.30;99.90
38359;DHT22;42072;48.044;14.416;2023-07-13T05:54:50;19.40;99.90
38359;DHT22;42072;48.044;14.416;2023-07-13T05:57:17;19.40;99.90
38359;DHT22;42072;48.044;14.416;2023-07-13T05:59:44;19.50;99.90
38359;DHT22;42072;48.044;14.416;2023-07-13T06:02:11;19.50;99.90
38359;DHT22;42072;48.044;14.416;2023-07-13T06:04:38;19.60;99.90
38359;DHT22;42072;48.044;14.416;2023-07-13T06:07:05;19.60;99.90
38359;DHT22;42072;48.044;14.416;2023-07-13T06:09:33;19.60;99.90
38359;DHT22;42072;48.044;14.416;2023-07-13T06:12:00;19.70;99.90
38359;DHT22;42072;48.044;14.416;2023-07-13T06:14:28;19.70;99.90
38359;DHT22;42072;48.044;14.416;2023-07-13T06:16:55;19.90;99.90
38359;DHT22;42072;48.044;14.416;2023-07-13T06:19:22;19.90;99.90
38359;DHT22;42072;48.044;14.416;2023-07-13T06:21:49;20.10;99.90
38359;DHT22;42072;48.044;14.416;2023-07-13T06:24:16;20.20;99.90
38359;DHT22;42072;48.044;14.416;2023-07-13T06:26:44;20.20;99.90
38359;DHT22;42072;48.044;14.416;2023-07-13T06:29:11;20.20;99.90
38359;DHT22;42072;48.044;14.416;2023-07-13T06:31:39;20.20;99.90
38359;DHT22;42072;48.044;14.416;2023-07-13T06:34:06;20.20;99.90
38359;DHT22;42072;48.044;14.416;2023-07-13T06:36:33;20.30;99.90
38359;DHT22;42072;48.044;14.416;2023-07-13T06:39:00;20.40;99.90
38359;DHT22;42072;48.044;14.416;2023-07-13T06:41:27;20.50;99.90
38359;DHT22;42072;48.044;14.416;2023-07-13T06:43:55;20.70;99.90
38359;DHT22;42072;48.044;14.416;2023-07-13T06:46:23;20.90;99.90
38359;DHT22;42072;48.044;14.416;2023-07-13T06:48:50;21.00;99.90
38359;DHT22;42072;48.044;14.416;2023-07-13T06:51:17;21.00;99.90
38359;DHT22;42072;48.044;14.416;2023-07-13T06:53:44;21.00;86.80
38359;DHT22;42072;48.044;14.416;2023-07-13T06:56:12;20.90;91.80
38359;DHT22;42072;48.044;14.416;2023-07-13T06:58:39;20.90;90.00
38359;DHT22;42072;48.044;14.416;2023-07-13T07:01:06;20.90;94.20
38359;DHT22;42072;48.044;14.416;2023-07-13T07:03:34;21.00;95.30
38359;DHT22;42072;48.044;14.416;2023-07-13T07:06:28;21.10;93.10
38359;DHT22;42072;48.044;14.416;2023-07-13T07:08:55;21.20;62.00
38359;DHT22;42072;48.044;14.416;2023-07-13T07:11:25;21.30;32.70
38359;DHT22;42072;48.044;14.416;2023-07-13T07:13:53;21.50;13.20
38359;DHT22;42072;48.044;14.416;2023-07-13T07:16:21;21.50;1.00
38359;DHT22;42072;48.044;14.416;2023-07-13T07:18:49;21.60;1.00
38359;DHT22;42072;48.044;14.416;2023-07-13T07:21:16;21.60;1.00
38359;DHT22;42072;48.044;14.416;2023-07-13T07:23:43;21.80;1.00
38359;DHT22;42072;48.044;14.416;2023-07-13T07:26:11;22.20;1.00
38359;DHT22;42072;48.044;14.416;2023-07-13T07:28:38;22.80;1.00
38359;DHT22;42072;48.044;14.416;2023-07-13T07:31:11;23.30;1.00
38359;DHT22;42072;48.044;14.416;2023-07-13T07:33:41;23.60;99.90
38359;DHT22;42072;48.044;14.416;2023-07-13T07:36:10;23.90;99.90
38359;DHT22;42072;48.044;14.416;2023-07-13T07:38:41;24.00;99.90
38359;DHT22;42072;48.044;14.416;2023-07-13T07:41:09;24.00;99.90
38359;DHT22;42072;48.044;14.416;2023-07-13T07:43:39;23.90;99.90
38359;DHT22;42072;48.044;14.416;2023-07-13T07:46:06;24.20;99.90
38359;DHT22;42072;48.044;14.416;2023-07-13T07:48:33;24.70;99.90
38359;DHT22;42072;48.044;14.416;2023-07-13T07:51:01;25.20;99.90
38359;DHT22;42072;48.044;14.416;2023-07-13T07:53:28;25.60;99.90
38359;DHT22;42072;48.044;14.416;2023-07-13T07:55:58;25.60;99.90
38359;DHT22;42072;48.044;14.416;2023-07-13T07:58:46;25.70;99.90
38359;DHT22;42072;48.044;14.416;2023-07-13T08:01:16;25.90;99.90
38359;DHT22;42072;48.044;14.416;2023-07-13T08:03:46;26.10;99.90
38359;DHT22;42072;48.044;14.416;2023-07-13T08:06:16;26.10;99.90
38359;DHT22;42072;48.044;14.416;2023-07-13T08:08:49;25.90;99.90
38359;DHT22;42072;48.044;14.416;2023-07-13T08:11:17;25.70;99.90
38359;DHT22;42072;48.044;14.416;2023-07-13T08:13:49;25.90;99.90
38359;DHT22;42072;48.044;14.416;2023-07-13T08:16:20;26.20;99.90
38359;DHT22;42072;48.044;14.416;2023-07-13T08:18:47;26.50;99.90
38359;DHT22;42072;48.044;14.416;2023-07-13T08:21:15;26.90;99.90
38359;DHT22;42072;48.044;14.416;2023-07-13T08:23:42;27.40;99.90
38359;DHT22;42072;48.044;14.416;2023-07-13T08:26:09;27.40;99.90
38359;DHT22;42072;48.044;14.416;2023-07-13T08:28:37;26.70;99.90
38359;DHT22;42072;48.044;14.416;2023-07-13T08:31:06;26.30;99.90
38359;DHT22;42072;48.044;14.416;2023-07-13T08:33:35;26.00;99.90
38359;DHT22;42072;48.044;14.416;2023-07-13T08:36:03;25.50;99.90
38359;DHT22;42072;48.044;14.416;2023-07-13T08:38:32;25.40;99.90
38359;DHT22;42072;48.044;14.416;2023-07-13T08:41:02;25.40;99.90
38359;DHT22;42072;48.044;14.416;2023-07-13T08:43:33;25.50;99.90
38359;DHT22;42072;48.044;14.416;2023-07-13T08:48:33;25.40;99.90
38359;DHT22;42072;48.044;14.416;2023-07-13T08:51:21;25.60;99.90
38359;DHT22;42072;48.044;14.416;2023-07-13T08:53:54;25.60;99.90
38359;DHT22;42072;48.044;14.416;2023-07-13T08:56:25;25.80;99.90
38359;DHT22;42072;48.044;14.416;2023-07-13T08:59:13;26.10;99.90
38359;DHT22;42072;48.044;14.416;2023-07-13T09:04:19;26.20;99.90
38359;DHT22;42072;48.044;14.416;2023-07-13T09:12:17;25.50;99.90
38359;DHT22;42072;48.044;14.416;2023-07-13T09:14:51;25.30;99.90
38359;DHT22;42072;48.044;14.416;2023-07-13T09:17:29;25.40;99.90
38359;DHT22;42072;48.044;14.416;2023-07-13T09:23:01;26.10;99.90
38359;DHT22;42072;48.044;14.416;2023-07-13T09:25:34;26.20;99.90
38359;DHT22;42072;48.044;14.416;2023-07-13T09:28:15;26.40;99.90
38359;DHT22;42072;48.044;14.416;2023-07-13T09:33:23;26.70;99.90
38359;DHT22;42072;48.044;14.416;2023-07-13T09:35:50;27.00;99.90
38359;DHT22;42072;48.044;14.416;2023-07-13T09:38:19;27.30;99.90
38359;DHT22;42072;48.044;14.416;2023-07-13T09:41:14;27.70;99.90
38359;DHT22;42072;48.044;14.416;2023-07-13T09:46:36;27.50;99.90
38359;DHT22;42072;48.044;14.416;2023-07-13T09:49:03;27.50;99.90
38359;DHT22;42072;48.044;14.416;2023-07-13T09:51:31;28.00;99.90
38359;DHT22;42072;48.044;14.416;2023-07-13T09:53:58;28.20;99.90
38359;DHT22;42072;48.044;14.416;2023-07-13T09:56:29;28.60;99.90
38359;DHT22;42072;48.044;14.416;2023-07-13T09:58:57;28.30;99.90
38359;DHT22;42072;48.044;14.416;2023-07-13T10:01:33;28.10;99.90
38359;DHT22;42072;48.044;14.416;2023-07-13T10:04:00;28.00;99.90
38359;DHT22;42072;48.044;14.416;2023-07-13T10:06:28;27.60;99.90
38359;DHT22;42072;48.044;14.416;2023-07-13T10:08:56;27.20;99.90
38359;DHT22;42072;48.044;14.416;2023-07-13T10:11:29;27.30;99.90
38359;DHT22;42072;48.044;14.416;2023-07-13T10:14:02;27.00;99.90
38359;DHT22;42072;48.044;14.416;2023-07-13T10:16:36;27.20;99.90
38359;DHT22;42072;48.044;14.416;2023-07-13T10:21:55;27.10;99.90
38359;DHT22;42072;48.044;14.416;2023-07-13T10:24:26;27.20;99.90
38359;DHT22;42072;48.044;14.416;2023-07-13T10:29:27;26.50;99.90
38359;DHT22;42072;48.044;14.416;2023-07-13T10:31:56;26.30;99.90
38359;DHT22;42072;48.044;14.416;2023-07-13T10:34:25;26.30;99.90
38359;DHT22;42072;48.044;14.416;2023-07-13T10:36:53;26.30;99.90
38359;DHT22;42072;48.044;14.416;2023-07-13T10:39:25;26.50;99.90
38359;DHT22;42072;48.044;14.416;2023-07-13T10:42:05;26.60;99.90
38359;DHT22;42072;48.044;14.416;2023-07-13T10:44:34;26.60;99.90
38359;DHT22;42072;48.044;14.416;2023-07-13T10:47:06;26.80;99.90
38359;DHT22;42072;48.044;14.416;2023-07-13T10:49:35;26.80;99.90
38359;DHT22;42072;48.044;14.416;2023-07-13T10:52:04;26.90;99.90
38359;DHT22;42072;48.044;14.416;2023-07-13T10:54:33;26.90;99.90
38359;DHT22;42072;48.044;14.416;2023-07-13T10:57:18;27.00;99.90
38359;DHT22;42072;48.044;14.416;2023-07-13T10:59:49;27.20;99.90
38359;DHT22;42072;48.044;14.416;2023-07-13T11:02:26;26.90;99.30
38359;DHT22;42072;48.044;14.416;2023-07-13T11:04:56;26.90;99.90
38359;DHT22;42072;48.044;14.416;2023-07-13T11:07:30;26.80;99.90
38359;DHT22;42072;48.044;14.416;2023-07-13T11:10:03;26.90;99.90
38359;DHT22;42072;48.044;14.416;2023-07-13T11:15:26;26.70;99.90
38359;DHT22;42072;48.044;14.416;2023-07-13T11:17:54;26.90;99.90
38359;DHT22;42072;48.044;14.416;2023-07-13T11:20:33;27.10;99.90
38359;DHT22;42072;48.044;14.416;2023-07-13T11:23:17;27.30;99.90
38359;DHT22;42072;48.044;14.416;2023-07-13T11:25:45;27.50;99.20
38359;DHT22;42072;48.044;14.416;2023-07-13T11:30:59;28.00;92.40
38359;DHT22;42072;48.044;14.416;2023-07-13T11:35:59;28.20;80.90
38359;DHT22;42072;48.044;14.416;2023-07-13T11:38:35;28.30;83.50
38359;DHT22;42072;48.044;14.416;2023-07-13T11:41:52;28.20;78.00
38359;DHT22;42072;48.044;14.416;2023-07-13T11:46:54;27.90;70.00
38359;DHT22;42072;48.044;14.416;2023-07-13T11:49:25;28.20;72.60
38359;DHT22;42072;48.044;14.416;2023-07-13T11:51:54;28.40;78.50
38359;DHT22;42072;48.044;14.416;2023-07-13T11:54:28;28.20;53.60
38359;DHT22;42072;48.044;14.416;2023-07-13T11:57:03;27.90;50.30
38359;DHT22;42072;48.044;14.416;2023-07-13T11:59:39;28.00;56.20
38359;DHT22;42072;48.044;14.416;2023-07-13T12:02:29;28.00;50.10
38359;DHT22;42072;48.044;14.416;2023-07-13T12:04:59;28.00;53.20
38359;DHT22;42072;48.044;14.416;2023-07-13T12:07:30;28.30;47.00
38359;DHT22;42072;48.044;14.416;2023-07-13T12:10:25;28.50;35.50
38359;DHT22;42072;48.044;14.416;2023-07-13T12:13:02;28.20;37.60
38359;DHT22;42072;48.044;14.416;2023-07-13T12:15:37;27.90;43.70
38359;DHT22;42072;48.044;14.416;2023-07-13T12:18:18;27.60;47.10
38359;DHT22;42072;48.044;14.416;2023-07-13T12:20:48;27.40;51.80
38359;DHT22;42072;48.044;14.416;2023-07-13T12:23:43;27.30;53.20
38359;DHT22;42072;48.044;14.416;2023-07-13T12:26:11;27.30;61.50
38359;DHT22;42072;48.044;14.416;2023-07-13T12:28:43;26.80;73.30
38359;DHT22;42072;48.044;14.416;2023-07-13T12:31:36;26.40;75.90
38359;DHT22;42072;48.044;14.416;2023-07-13T12:34:08;25.90;90.30
38359;DHT22;42072;48.044;14.416;2023-07-13T12:36:38;25.50;94.60
38359;DHT22;42072;48.044;14.416;2023-07-13T12:39:44;25.50;99.90
38359;DHT22;42072;48.044;14.416;2023-07-13T12:42:28;25.60;99.90
38359;DHT22;42072;48.044;14.416;2023-07-13T12:47:43;25.40;99.90
38359;DHT22;42072;48.044;14.416;2023-07-13T12:50:21;25.40;99.90
38359;DHT22;42072;48.044;14.416;2023-07-13T12:52:54;25.40;99.90
38359;DHT22;42072;48.044;14.416;2023-07-13T12:55:23;25.70;99.90
38359;DHT22;42072;48.044;14.416;2023-07-13T12:57:52;25.90;99.90
38359;DHT22;42072;48.044;14.416;2023-07-13T13:02:56;26.20;99.90
38359;DHT22;42072;48.044;14.416;2023-07-13T13:05:44;26.30;99.90
38359;DHT22;42072;48.044;14.416;2023-07-13T13:08:13;26.30;99.90
38359;DHT22;42072;48.044;14.416;2023-07-13T13:10:40;26.20;99.90
38359;DHT22;42072;48.044;14.416;2023-07-13T13:13:09;25.70;99.90
38359;DHT22;42072;48.044;14.416;2023-07-13T13:15:36;25.50;99.90
38359;DHT22;42072;48.044;14.416;2023-07-13T13:18:16;25.10;99.90
38359;DHT22;42072;48.044;14.416;2023-07-13T13:20:45;24.80;99.90
38359;DHT22;42072;48.044;14.416;2023-07-13T13:23:14;25.00;99.90
38359;DHT22;42072;48.044;14.416;2023-07-13T13:25:49;25.20;99.90
38359;DHT22;42072;48.044;14.416;2023-07-13T13:28:20;25.10;99.90
38359;DHT22;42072;48.044;14.416;2023-07-13T13:30:49;25.00;99.90
38359;DHT22;42072;48.044;14.416;2023-07-13T13:33:21;25.30;99.90
38359;DHT22;42072;48.044;14.416;2023-07-13T13:35:49;25.40;99.90
38359;DHT22;42072;48.044;14.416;2023-07-13T13:38:26;25.80;99.90
38359;DHT22;42072;48.044;14.416;2023-07-13T13:40:53;25.80;99.90
38359;DHT22;42072;48.044;14.416;2023-07-13T13:43:26;26.00;99.90
38359;DHT22;42072;48.044;14.416;2023-07-13T13:45:57;25.90;99.90
38359;DHT22;42072;48.044;14.416;2023-07-13T13:48:33;25.90;99.90
38359;DHT22;42072;48.044;14.416;2023-07-13T13:51:15;25.70;99.90
38359;DHT22;42072;48.044;14.416;2023-07-13T13:53:43;25.60;99.90
38359;DHT22;42072;48.044;14.416;2023-07-13T13:56:13;25.60;99.90
38359;DHT22;42072;48.044;14.416;2023-07-13T13:58:41;25.40;99.90
38359;DHT22;42072;48.044;14.416;2023-07-13T14:01:20;25.10;99.90
38359;DHT22;42072;48.044;14.416;2023-07-13T14:03:49;24.90;99.90
38359;DHT22;42072;48.044;14.416;2023-07-13T14:06:18;24.60;99.90
38359;DHT22;42072;48.044;14.416;2023-07-13T14:08:46;24.60;99.90
38359;DHT22;42072;48.044;14.416;2023-07-13T14:11:19;24.90;99.90
38359;DHT22;42072;48.044;14.416;2023-07-13T14:13:53;25.60;99.90
38359;DHT22;42072;48.044;14.416;2023-07-13T14:16:24;26.10;99.90
38359;DHT22;42072;48.044;14.416;2023-07-13T14:18:55;26.80;99.90
38359;DHT22;42072;48.044;14.416;2023-07-13T14:21:27;27.30;99.90
38359;DHT22;42072;48.044;14.416;2023-07-13T14:23:55;27.80;94.20
38359;DHT22;42072;48.044;14.416;2023-07-13T14:26:26;27.80;86.00
38359;DHT22;42072;48.044;14.416;2023-07-13T14:28:56;27.70;89.50
38359;DHT22;42072;48.044;14.416;2023-07-13T14:31:26;27.50;80.10
38359;DHT22;42072;48.044;14.416;2023-07-13T14:33:57;27.50;82.70
38359;DHT22;42072;48.044;14.416;2023-07-13T14:38:52;27.80;83.00
38359;DHT22;42072;48.044;14.416;2023-07-13T14:41:20;27.60;73.50
38359;DHT22;42072;48.044;14.416;2023-07-13T14:43:48;27.30;81.80
38359;DHT22;42072;48.044;14.416;2023-07-13T14:46:31;26.80;84.70
38359;DHT22;42072;48.044;14.416;2023-07-13T14:49:19;26.60;87.90
38359;DHT22;42072;48.044;14.416;2023-07-13T14:51:49;26.70;81.70
38359;DHT22;42072;48.044;14.416;2023-07-13T14:54:16;26.60;91.50
38359;DHT22;42072;48.044;14.416;2023-07-13T14:56:44;26.50;94.20
38359;DHT22;42072;48.044;14.416;2023-07-13T14:59:13;26.50;99.10
38359;DHT22;42072;48.044;14.416;2023-07-13T15:01:41;26.70;98.10
38359;DHT22;42072;48.044;14.416;2023-07-13T15:04:09;26.80;98.10
38359;DHT22;42072;48.044;14.416;2023-07-13T15:07:01;26.70;94.10
38359;DHT22;42072;48.044;14.416;2023-07-13T15:09:29;26.50;91.20
38359;DHT22;42072;48.044;14.416;2023-07-13T15:11:57;26.60;91.70
38359;DHT22;42072;48.044;14.416;2023-07-13T15:14:25;26.40;93.80
38359;DHT22;42072;48.044;14.416;2023-07-13T15:16:54;26.50;77.60
38359;DHT22;42072;48.044;14.416;2023-07-13T15:19:23;26.60;65.50
38359;DHT22;42072;48.044;14.416;2023-07-13T15:21:55;26.60;54.50
38359;DHT22;42072;48.044;14.416;2023-07-13T15:24:24;26.70;42.00
38359;DHT22;42072;48.044;14.416;2023-07-13T15:26:52;26.60;44.80
38359;DHT22;42072;48.044;14.416;2023-07-13T15:29:19;26.70;43.30
38359;DHT22;42072;48.044;14.416;2023-07-13T15:31:47;26.80;45.50
38359;DHT22;42072;48.044;14.416;2023-07-13T15:34:18;26.90;48.00
38359;DHT22;42072;48.044;14.416;2023-07-13T15:36:47;26.90;46.30
38359;DHT22;42072;48.044;14.416;2023-07-13T15:39:16;26.80;50.20
38359;DHT22;42072;48.044;14.416;2023-07-13T15:41:44;26.70;49.10
38359;DHT22;42072;48.044;14.416;2023-07-13T15:44:29;26.70;59.80
38359;DHT22;42072;48.044;14.416;2023-07-13T15:46:58;26.60;57.80
38359;DHT22;42072;48.044;14.416;2023-07-13T15:49:27;26.70;61.40
38359;DHT22;42072;48.044;14.416;2023-07-13T15:51:55;26.40;63.70
38359;DHT22;42072;48.044;14.416;2023-07-13T15:54:23;26.30;69.50
38359;DHT22;42072;48.044;14.416;2023-07-13T15:56:54;26.30;74.50
38359;DHT22;42072;48.044;14.416;2023-07-13T15:59:22;26.30;76.30
38359;DHT22;42072;48.044;14.416;2023-07-13T16:01:50;26.30;77.70
38359;DHT22;42072;48.044;14.416;2023-07-13T16:04:17;26.50;80.90
38359;DHT22;42072;48.044;14.416;2023-07-13T16:06:47;26.30;83.70
38359;DHT22;42072;48.044;14.416;2023-07-13T16:09:21;26.30;88.90
38359;DHT22;42072;48.044;14.416;2023-07-13T16:11:50;26.50;84.90
38359;DHT22;42072;48.044;14.416;2023-07-13T16:14:18;26.60;86.50
38359;DHT22;42072;48.044;14.416;2023-07-13T16:16:47;26.80;85.10
38359;DHT22;42072;48.044;14.416;2023-07-13T16:19:18;26.90;87.80
38359;DHT22;42072;48.044;14.416;2023-07-13T16:21:49;26.70;80.70
38359;DHT22;42072;48.044;14.416;2023-07-13T16:24:21;26.70;90.30
38359;DHT22;42072;48.044;14.416;2023-07-13T16:26:49;26.60;85.00